sensor_id;sensor_type;location;lat;lon;timestamp;P1;durP1;ratioP1;P2;durP2;ratioP2
57730;SDS011;43570;47.476;19.040;2023-06-14T00:02:08;6.65;;;4.28;;
57730;SDS011;43570;47.476;19.040;2023-06-14T00:04:34;7.60;;;5.10;;
57730;SDS011;43570;47.476;19.040;2023-06-14T00:07:00;6.62;;;4.62;;
57730;SDS011;43570;47.476;19.040;2023-06-14T00:09:25;7.12;;;4.93;;
57730;SDS011;43570;47.476;19.040;2023-06-14T00:11:51;9.98;;;5.18;;
57730;SDS011;43570;47.476;19.040;2023-06-14T00:14:16;7.12;;;4.60;;
57730;SDS011;43570;47.476;19.040;2023-06-14T00:16:41;7.72;;;4.62;;
57730;SDS011;43570;47.476;19.040;2023-06-14T00:19:10;8.05;;;4.82;;
57730;SDS011;43570;47.476;19.040;2023-06-14T00:21:36;7.37;;;5.18;;
57730;SDS011;43570;47.476;19.040;2023-06-14T00:24:03;7.43;;;4.97;;
57730;SDS011;43570;47.476;19.040;2023-06-14T00:26:29;7.35;;;4.85;;
57730;SDS011;43570;47.476;19.040;2023-06-14T00:28:54;9.30;;;6.28;;
57730;SDS011;43570;47.476;19.040;2023-06-14T00:31:21;9.40;;;5.85;;
57730;SDS011;43570;47.476;19.040;2023-06-14T00:33:46;9.55;;;5.50;;
57730;SDS011;43570;47.476;19.040;2023-06-14T00:36:12;9.23;;;6.12;;
57730;SDS011;43570;47.476;19.040;2023-06-14T00:38:37;8.88;;;5.85;;
57730;SDS011;43570;47.476;19.040;2023-06-14T00:41:03;7.82;;;4.95;;
57730;SDS011;43570;47.476;19.040;2023-06-14T00:43:28;7.00;;;4.65;;
57730;SDS011;43570;47.476;19.040;2023-06-14T00:45:54;10.57;;;5.37;;
57730;SDS011;43570;47.476;19.040;2023-06-14T00:48:19;6.97;;;5.03;;
57730;SDS011;43570;47.476;19.040;2023-06-14T00:50:45;7.75;;;4.82;;
57730;SDS011;43570;47.476;19.040;2023-06-14T00:53:11;7.25;;;4.85;;
57730;SDS011;43570;47.476;19.040;2023-06-14T00:55:37;8.05;;;5.40;;
57730;SDS011;43570;47.476;19.040;2023-06-14T00:58:03;7.25;;;5.40;;
57730;SDS011;43570;47.476;19.040;2023-06-14T01:00:28;8.55;;;5.00;;
57730;SDS011;43570;47.476;19.040;2023-06-14T01:02:54;10.98;;;5.37;;
57730;SDS011;43570;47.476;19.040;2023-06-14T01:05:20;8.02;;;5.55;;
57730;SDS011;43570;47.476;19.040;2023-06-14T01:10:40;8.23;;;6.43;;
57730;SDS011;43570;47.476;19.040;2023-06-14T01:16:01;8.27;;;5.80;;
57730;SDS011;43570;47.476;19.040;2023-06-14T01:18:28;9.60;;;6.10;;
57730;SDS011;43570;47.476;19.040;2023-06-14T01:20:54;8.82;;;5.68;;
57730;SDS011;43570;47.476;19.040;2023-06-14T01:23:21;8.77;;;6.12;;
57730;SDS011;43570;47.476;19.040;2023-06-14T01:25:48;9.32;;;6.10;;
57730;SDS011;43570;47.476;19.040;2023-06-14T01:28:17;10.05;;;6.85;;
57730;SDS011;43570;47.476;19.040;2023-06-14T01:30:44;9.50;;;7.10;;
57730;SDS011;43570;47.476;19.040;2023-06-14T01:33:16;9.90;;;7.32;;
57730;SDS011;43570;47.476;19.040;2023-06-14T01:35:44;11.50;;;8.05;;
57730;SDS011;43570;47.476;19.040;2023-06-14T01:38:13;10.10;;;7.35;;
57730;SDS011;43570;47.476;19.040;2023-06-14T01:40:38;9.68;;;7.30;;
57730;SDS011;43570;47.476;19.040;2023-06-14T01:43:04;10.50;;;7.72;;
57730;SDS011;43570;47.476;19.040;2023-06-14T01:45:30;12.02;;;7.25;;
57730;SDS011;43570;47.476;19.040;2023-06-14T01:47:56;9.50;;;7.35;;
57730;SDS011;43570;47.476;19.040;2023-06-14T01:50:22;9.95;;;7.18;;
57730;SDS011;43570;47.476;19.040;2023-06-14T01:52:47;10.02;;;7.35;;
57730;SDS011;43570;47.476;19.040;2023-06-14T01:55:13;9.73;;;7.12;;
57730;SDS011;43570;47.476;19.040;2023-06-14T01:57:38;8.95;;;7.03;;
57730;SDS011;43570;47.476;19.040;2023-06-14T02:00:04;9.73;;;7.00;;
57730;SDS011;43570;47.476;19.040;2023-06-14T02:02:33;9.20;;;7.97;;
57730;SDS011;43570;47.476;19.040;2023-06-14T02:04:58;9.77;;;7.80;;
57730;SDS011;43570;47.476;19.040;2023-06-14T02:07:24;10.95;;;7.72;;
57730;SDS011;43570;47.476;19.040;2023-06-14T02:09:49;11.20;;;8.13;;
57730;SDS011;43570;47.476;19.040;2023-06-14T02:12:15;11.10;;;7.93;;
57730;SDS011;43570;47.476;19.040;2023-06-14T02:14:40;10.43;;;7.70;;
57730;SDS011;43570;47.476;19.040;2023-06-14T02:17:05;10.15;;;7.53;;
57730;SDS011;43570;47.476;19.040;2023-06-14T02:19:31;9.80;;;6.72;;
57730;SDS011;43570;47.476;19.040;2023-06-14T02:21:56;11.23;;;7.55;;
57730;SDS011;43570;47.476;19.040;2023-06-14T02:24:22;10.65;;;7.15;;
57730;SDS011;43570;47.476;19.040;2023-06-14T02:26:48;10.05;;;7.72;;
57730;SDS011;43570;47.476;19.040;2023-06-14T02:29:14;10.07;;;7.95;;
57730;SDS011;43570;47.476;19.040;2023-06-14T02:31:40;10.05;;;8.95;;
57730;SDS011;43570;47.476;19.040;2023-06-14T02:34:05;11.05;;;8.93;;
57730;SDS011;43570;47.476;19.040;2023-06-14T02:36:33;12.43;;;8.95;;
57730;SDS011;43570;47.476;19.040;2023-06-14T02:38:59;10.85;;;8.38;;
57730;SDS011;43570;47.476;19.040;2023-06-14T02:41:24;11.10;;;7.93;;
57730;SDS011;43570;47.476;19.040;2023-06-14T02:43:51;10.13;;;8.27;;
57730;SDS011;43570;47.476;19.040;2023-06-14T02:46:16;10.85;;;8.70;;
57730;SDS011;43570;47.476;19.040;2023-06-14T02:48:42;11.10;;;8.48;;
57730;SDS011;43570;47.476;19.040;2023-06-14T02:51:07;11.07;;;8.43;;
57730;SDS011;43570;47.476;19.040;2023-06-14T02:53:34;10.20;;;8.77;;
57730;SDS011;43570;47.476;19.040;2023-06-14T02:56:00;11.12;;;7.97;;
57730;SDS011;43570;47.476;19.040;2023-06-14T02:58:26;11.52;;;8.20;;
57730;SDS011;43570;47.476;19.040;2023-06-14T03:00:51;10.00;;;8.25;;
57730;SDS011;43570;47.476;19.040;2023-06-14T03:03:18;10.65;;;7.85;;
57730;SDS011;43570;47.476;19.040;2023-06-14T03:05:46;9.80;;;7.75;;
57730;SDS011;43570;47.476;19.040;2023-06-14T03:08:14;12.75;;;8.68;;
57730;SDS011;43570;47.476;19.040;2023-06-14T03:10:45;11.02;;;8.35;;
57730;SDS011;43570;47.476;19.040;2023-06-14T03:13:12;18.42;;;8.90;;
57730;SDS011;43570;47.476;19.040;2023-06-14T03:15:38;10.52;;;8.18;;
57730;SDS011;43570;47.476;19.040;2023-06-14T03:18:07;10.55;;;8.00;;
57730;SDS011;43570;47.476;19.040;2023-06-14T03:20:34;12.55;;;8.75;;
57730;SDS011;43570;47.476;19.040;2023-06-14T03:23:01;14.57;;;9.52;;
57730;SDS011;43570;47.476;19.040;2023-06-14T03:25:27;12.07;;;8.65;;
57730;SDS011;43570;47.476;19.040;2023-06-14T03:27:54;12.45;;;9.77;;
57730;SDS011;43570;47.476;19.040;2023-06-14T03:30:20;9.68;;;8.65;;
57730;SDS011;43570;47.476;19.040;2023-06-14T03:32:46;12.30;;;9.23;;
57730;SDS011;43570;47.476;19.040;2023-06-14T03:35:11;12.05;;;9.75;;
57730;SDS011;43570;47.476;19.040;2023-06-14T03:37:42;12.48;;;9.38;;
57730;SDS011;43570;47.476;19.040;2023-06-14T03:40:08;12.40;;;9.15;;
57730;SDS011;43570;47.476;19.040;2023-06-14T03:42:33;12.37;;;9.45;;
57730;SDS011;43570;47.476;19.040;2023-06-14T03:44:59;13.85;;;10.73;;
57730;SDS011;43570;47.476;19.040;2023-06-14T03:47:24;15.32;;;10.40;;
57730;SDS011;43570;47.476;19.040;2023-06-14T03:49:50;12.88;;;10.07;;
57730;SDS011;43570;47.476;19.040;2023-06-14T03:52:15;11.48;;;9.57;;
57730;SDS011;43570;47.476;19.040;2023-06-14T03:54:42;15.82;;;10.82;;
57730;SDS011;43570;47.476;19.040;2023-06-14T03:57:09;14.90;;;10.52;;
57730;SDS011;43570;47.476;19.040;2023-06-14T03:59:35;12.25;;;10.00;;
57730;SDS011;43570;47.476;19.040;2023-06-14T04:02:01;13.95;;;9.98;;
57730;SDS011;43570;47.476;19.040;2023-06-14T04:04:27;14.18;;;9.80;;
57730;SDS011;43570;47.476;19.040;2023-06-14T04:06:55;13.13;;;9.57;;
57730;SDS011;43570;47.476;19.040;2023-06-14T04:09:22;11.05;;;9.25;;
57730;SDS011;43570;47.476;19.040;2023-06-14T04:11:49;13.55;;;9.85;;
57730;SDS011;43570;47.476;19.040;2023-06-14T04:14:15;12.23;;;10.07;;
57730;SDS011;43570;47.476;19.040;2023-06-14T04:16:40;14.30;;;11.00;;
57730;SDS011;43570;47.476;19.040;2023-06-14T04:19:06;14.18;;;10.88;;
57730;SDS011;43570;47.476;19.040;2023-06-14T04:21:31;15.23;;;10.73;;
57730;SDS011;43570;47.476;19.040;2023-06-14T04:23:59;13.62;;;10.85;;
57730;SDS011;43570;47.476;19.040;2023-06-14T04:26:26;13.52;;;10.45;;
57730;SDS011;43570;47.476;19.040;2023-06-14T04:28:54;17.83;;;11.20;;
57730;SDS011;43570;47.476;19.040;2023-06-14T04:31:21;15.65;;;11.90;;
57730;SDS011;43570;47.476;19.040;2023-06-14T04:33:54;14.57;;;11.50;;
57730;SDS011;43570;47.476;19.040;2023-06-14T04:36:19;16.08;;;11.93;;
57730;SDS011;43570;47.476;19.040;2023-06-14T04:38:45;15.38;;;11.25;;
57730;SDS011;43570;47.476;19.040;2023-06-14T04:41:11;14.73;;;11.12;;
57730;SDS011;43570;47.476;19.040;2023-06-14T04:43:37;17.40;;;11.85;;
57730;SDS011;43570;47.476;19.040;2023-06-14T04:46:06;12.80;;;11.20;;
57730;SDS011;43570;47.476;19.040;2023-06-14T04:48:36;16.67;;;12.05;;
57730;SDS011;43570;47.476;19.040;2023-06-14T04:51:02;15.90;;;12.02;;
57730;SDS011;43570;47.476;19.040;2023-06-14T04:53:29;13.30;;;10.63;;
57730;SDS011;43570;47.476;19.040;2023-06-14T04:55:54;17.20;;;12.82;;
57730;SDS011;43570;47.476;19.040;2023-06-14T04:58:20;13.88;;;11.32;;
57730;SDS011;43570;47.476;19.040;2023-06-14T05:00:45;14.27;;;12.15;;
57730;SDS011;43570;47.476;19.040;2023-06-14T05:03:10;15.85;;;12.32;;
57730;SDS011;43570;47.476;19.040;2023-06-14T05:05:38;19.52;;;13.43;;
57730;SDS011;43570;47.476;19.040;2023-06-14T05:08:05;19.70;;;12.55;;
57730;SDS011;43570;47.476;19.040;2023-06-14T05:10:30;14.05;;;11.93;;
57730;SDS011;43570;47.476;19.040;2023-06-14T05:12:56;16.52;;;12.52;;
57730;SDS011;43570;47.476;19.040;2023-06-14T05:15:21;17.30;;;12.20;;
57730;SDS011;43570;47.476;19.040;2023-06-14T05:17:50;15.50;;;12.17;;
57730;SDS011;43570;47.476;19.040;2023-06-14T05:22:45;14.50;;;11.98;;
57730;SDS011;43570;47.476;19.040;2023-06-14T05:25:10;15.10;;;12.77;;
57730;SDS011;43570;47.476;19.040;2023-06-14T05:27:35;17.33;;;12.35;;
57730;SDS011;43570;47.476;19.040;2023-06-14T05:30:02;13.85;;;11.65;;
57730;SDS011;43570;47.476;19.040;2023-06-14T05:32:29;13.40;;;10.65;;
57730;SDS011;43570;47.476;19.040;2023-06-14T05:34:54;15.82;;;11.82;;
57730;SDS011;43570;47.476;19.040;2023-06-14T05:37:20;14.35;;;11.00;;
57730;SDS011;43570;47.476;19.040;2023-06-14T05:39:45;15.70;;;11.30;;
57730;SDS011;43570;47.476;19.040;2023-06-14T05:42:10;15.27;;;11.35;;
57730;SDS011;43570;47.476;19.040;2023-06-14T05:44:36;18.92;;;12.30;;
57730;SDS011;43570;47.476;19.040;2023-06-14T05:47:01;15.48;;;10.98;;
57730;SDS011;43570;47.476;19.040;2023-06-14T05:49:27;14.15;;;10.90;;
57730;SDS011;43570;47.476;19.040;2023-06-14T05:51:52;14.65;;;10.40;;
57730;SDS011;43570;47.476;19.040;2023-06-14T05:54:17;13.48;;;10.50;;
57730;SDS011;43570;47.476;19.040;2023-06-14T05:56:43;14.10;;;10.23;;
57730;SDS011;43570;47.476;19.040;2023-06-14T05:59:08;17.50;;;10.75;;
57730;SDS011;43570;47.476;19.040;2023-06-14T06:01:34;14.65;;;10.65;;
57730;SDS011;43570;47.476;19.040;2023-06-14T06:04:01;12.37;;;8.95;;
57730;SDS011;43570;47.476;19.040;2023-06-14T06:06:27;14.10;;;10.55;;
57730;SDS011;43570;47.476;19.040;2023-06-14T06:08:53;12.70;;;9.63;;
57730;SDS011;43570;47.476;19.040;2023-06-14T06:11:18;14.20;;;10.13;;
57730;SDS011;43570;47.476;19.040;2023-06-14T06:13:44;12.60;;;9.80;;
57730;SDS011;43570;47.476;19.040;2023-06-14T06:16:09;14.05;;;10.15;;
57730;SDS011;43570;47.476;19.040;2023-06-14T06:18:35;14.60;;;10.30;;
57730;SDS011;43570;47.476;19.040;2023-06-14T06:21:00;12.13;;;9.77;;
57730;SDS011;43570;47.476;19.040;2023-06-14T06:23:28;13.48;;;9.95;;
57730;SDS011;43570;47.476;19.040;2023-06-14T06:25:53;11.68;;;9.70;;
57730;SDS011;43570;47.476;19.040;2023-06-14T06:28:18;12.32;;;9.48;;
57730;SDS011;43570;47.476;19.040;2023-06-14T06:30:44;16.45;;;9.60;;
57730;SDS011;43570;47.476;19.040;2023-06-14T06:33:10;12.02;;;8.80;;
57730;SDS011;43570;47.476;19.040;2023-06-14T06:35:35;14.77;;;9.45;;
57730;SDS011;43570;47.476;19.040;2023-06-14T06:38:01;12.07;;;8.82;;
57730;SDS011;43570;47.476;19.040;2023-06-14T06:40:26;13.90;;;9.25;;
57730;SDS011;43570;47.476;19.040;2023-06-14T06:42:51;12.90;;;8.95;;
57730;SDS011;43570;47.476;19.040;2023-06-14T06:45:18;11.18;;;9.48;;
57730;SDS011;43570;47.476;19.040;2023-06-14T06:47:43;13.60;;;9.52;;
57730;SDS011;43570;47.476;19.040;2023-06-14T06:50:09;11.57;;;8.98;;
57730;SDS011;43570;47.476;19.040;2023-06-14T06:52:34;12.27;;;9.00;;
57730;SDS011;43570;47.476;19.040;2023-06-14T06:55:00;12.98;;;9.43;;
57730;SDS011;43570;47.476;19.040;2023-06-14T06:57:25;12.10;;;8.38;;
57730;SDS011;43570;47.476;19.040;2023-06-14T06:59:50;12.07;;;8.55;;
57730;SDS011;43570;47.476;19.040;2023-06-14T07:02:16;13.65;;;9.02;;
57730;SDS011;43570;47.476;19.040;2023-06-14T07:04:42;10.95;;;8.13;;
57730;SDS011;43570;47.476;19.040;2023-06-14T07:07:07;10.57;;;8.38;;
57730;SDS011;43570;47.476;19.040;2023-06-14T07:09:34;12.98;;;8.65;;
57730;SDS011;43570;47.476;19.040;2023-06-14T07:12:00;15.30;;;8.65;;
57730;SDS011;43570;47.476;19.040;2023-06-14T07:14:25;11.75;;;8.07;;
57730;SDS011;43570;47.476;19.040;2023-06-14T07:16:50;13.60;;;9.23;;
57730;SDS011;43570;47.476;19.040;2023-06-14T07:19:16;15.57;;;9.68;;
57730;SDS011;43570;47.476;19.040;2023-06-14T07:21:42;11.10;;;8.07;;
57730;SDS011;43570;47.476;19.040;2023-06-14T07:24:07;10.85;;;7.87;;
57730;SDS011;43570;47.476;19.040;2023-06-14T07:26:33;11.12;;;7.43;;
57730;SDS011;43570;47.476;19.040;2023-06-14T07:28:58;12.18;;;7.80;;
57730;SDS011;43570;47.476;19.040;2023-06-14T07:31:24;11.23;;;7.43;;
57730;SDS011;43570;47.476;19.040;2023-06-14T07:33:49;11.07;;;7.97;;
57730;SDS011;43570;47.476;19.040;2023-06-14T07:36:15;11.98;;;8.05;;
57730;SDS011;43570;47.476;19.040;2023-06-14T07:38:40;10.70;;;7.45;;
57730;SDS011;43570;47.476;19.040;2023-06-14T07:41:06;12.93;;;8.23;;
57730;SDS011;43570;47.476;19.040;2023-06-14T07:43:32;11.38;;;7.80;;
57730;SDS011;43570;47.476;19.040;2023-06-14T07:45:57;9.60;;;7.30;;
57730;SDS011;43570;47.476;19.040;2023-06-14T07:48:23;12.75;;;7.40;;
57730;SDS011;43570;47.476;19.040;2023-06-14T07:50:48;9.90;;;7.25;;
57730;SDS011;43570;47.476;19.040;2023-06-14T07:53:14;9.50;;;6.80;;
57730;SDS011;43570;47.476;19.040;2023-06-14T07:55:39;11.70;;;8.10;;
57730;SDS011;43570;47.476;19.040;2023-06-14T07:58:07;11.60;;;8.07;;
57730;SDS011;43570;47.476;19.040;2023-06-14T08:00:32;14.13;;;8.50;;
57730;SDS011;43570;47.476;19.040;2023-06-14T08:02:58;10.75;;;6.93;;
57730;SDS011;43570;47.476;19.040;2023-06-14T08:05:24;12.02;;;7.62;;
57730;SDS011;43570;47.476;19.040;2023-06-14T08:07:51;10.75;;;7.00;;
57730;SDS011;43570;47.476;19.040;2023-06-14T08:10:16;10.75;;;7.50;;
57730;SDS011;43570;47.476;19.040;2023-06-14T08:12:41;11.32;;;7.00;;
57730;SDS011;43570;47.476;19.040;2023-06-14T08:15:07;9.30;;;6.90;;
57730;SDS011;43570;47.476;19.040;2023-06-14T08:17:32;9.55;;;6.75;;
57730;SDS011;43570;47.476;19.040;2023-06-14T08:19:58;13.77;;;7.55;;
57730;SDS011;43570;47.476;19.040;2023-06-14T08:22:24;11.82;;;6.72;;
57730;SDS011;43570;47.476;19.040;2023-06-14T08:24:49;11.32;;;8.45;;
57730;SDS011;43570;47.476;19.040;2023-06-14T08:27:15;8.65;;;7.18;;
57730;SDS011;43570;47.476;19.040;2023-06-14T08:29:41;9.27;;;6.68;;
57730;SDS011;43570;47.476;19.040;2023-06-14T08:32:06;8.45;;;6.62;;
57730;SDS011;43570;47.476;19.040;2023-06-14T08:34:32;11.30;;;7.60;;
57730;SDS011;43570;47.476;19.040;2023-06-14T08:36:57;8.88;;;7.00;;
57730;SDS011;43570;47.476;19.040;2023-06-14T08:39:23;10.68;;;7.32;;
57730;SDS011;43570;47.476;19.040;2023-06-14T08:41:48;11.05;;;7.37;;
57730;SDS011;43570;47.476;19.040;2023-06-14T08:44:17;14.30;;;7.30;;
57730;SDS011;43570;47.476;19.040;2023-06-14T08:46:42;11.33;;;7.43;;
57730;SDS011;43570;47.476;19.040;2023-06-14T08:49:08;9.50;;;7.20;;
57730;SDS011;43570;47.476;19.040;2023-06-14T08:51:36;11.03;;;6.87;;
57730;SDS011;43570;47.476;19.040;2023-06-14T08:54:05;9.43;;;6.47;;
57730;SDS011;43570;47.476;19.040;2023-06-14T08:56:31;11.43;;;7.55;;
57730;SDS011;43570;47.476;19.040;2023-06-14T08:58:59;13.10;;;8.35;;
57730;SDS011;43570;47.476;19.040;2023-06-14T09:01:28;11.23;;;7.07;;
57730;SDS011;43570;47.476;19.040;2023-06-14T09:03:59;10.93;;;6.95;;
57730;SDS011;43570;47.476;19.040;2023-06-14T09:06:24;12.98;;;7.65;;
57730;SDS011;43570;47.476;19.040;2023-06-14T09:08:50;9.85;;;6.90;;
57730;SDS011;43570;47.476;19.040;2023-06-14T09:11:16;10.27;;;6.97;;
57730;SDS011;43570;47.476;19.040;2023-06-14T09:13:44;10.93;;;6.40;;
57730;SDS011;43570;47.476;19.040;2023-06-14T09:16:13;7.85;;;5.90;;
57730;SDS011;43570;47.476;19.040;2023-06-14T09:18:39;7.90;;;5.50;;
57730;SDS011;43570;47.476;19.040;2023-06-14T09:21:08;10.38;;;6.40;;
57730;SDS011;43570;47.476;19.040;2023-06-14T09:23:37;11.60;;;7.20;;
57730;SDS011;43570;47.476;19.040;2023-06-14T09:28:32;14.77;;;7.30;;
57730;SDS011;43570;47.476;19.040;2023-06-14T09:30:58;12.23;;;6.45;;
57730;SDS011;43570;47.476;19.040;2023-06-14T09:33:25;13.02;;;7.60;;
57730;SDS011;43570;47.476;19.040;2023-06-14T09:35:51;12.95;;;7.90;;
57730;SDS011;43570;47.476;19.040;2023-06-14T09:38:17;10.73;;;7.05;;
57730;SDS011;43570;47.476;19.040;2023-06-14T09:40:43;12.27;;;6.68;;
57730;SDS011;43570;47.476;19.040;2023-06-14T09:43:08;12.18;;;7.00;;
57730;SDS011;43570;47.476;19.040;2023-06-14T09:45:34;9.98;;;6.72;;
57730;SDS011;43570;47.476;19.040;2023-06-14T09:48:00;7.72;;;6.03;;
57730;SDS011;43570;47.476;19.040;2023-06-14T09:50:26;8.38;;;4.87;;
57730;SDS011;43570;47.476;19.040;2023-06-14T09:52:52;7.68;;;5.20;;
57730;SDS011;43570;47.476;19.040;2023-06-14T09:55:17;7.75;;;5.40;;
57730;SDS011;43570;47.476;19.040;2023-06-14T09:57:44;9.70;;;4.93;;
57730;SDS011;43570;47.476;19.040;2023-06-14T10:00:11;7.05;;;5.05;;
57730;SDS011;43570;47.476;19.040;2023-06-14T10:02:38;8.48;;;4.70;;
57730;SDS011;43570;47.476;19.040;2023-06-14T10:05:08;7.97;;;4.90;;
57730;SDS011;43570;47.476;19.040;2023-06-14T10:07:35;7.55;;;5.32;;
57730;SDS011;43570;47.476;19.040;2023-06-14T10:10:05;9.55;;;4.60;;
57730;SDS011;43570;47.476;19.040;2023-06-14T10:12:31;8.07;;;5.43;;
57730;SDS011;43570;47.476;19.040;2023-06-14T10:14:56;8.43;;;5.03;;
57730;SDS011;43570;47.476;19.040;2023-06-14T10:17:39;8.25;;;5.10;;
57730;SDS011;43570;47.476;19.040;2023-06-14T10:20:14;8.40;;;5.25;;
57730;SDS011;43570;47.476;19.040;2023-06-14T10:22:43;12.35;;;6.97;;
57730;SDS011;43570;47.476;19.040;2023-06-14T10:25:28;10.93;;;4.32;;
57730;SDS011;43570;47.476;19.040;2023-06-14T10:28:05;7.20;;;4.68;;
57730;SDS011;43570;47.476;19.040;2023-06-14T10:31:00;8.00;;;4.55;;
57730;SDS011;43570;47.476;19.040;2023-06-14T10:33:27;6.50;;;4.57;;
57730;SDS011;43570;47.476;19.040;2023-06-14T10:36:06;7.20;;;4.32;;
57730;SDS011;43570;47.476;19.040;2023-06-14T10:39:05;8.90;;;4.87;;
57730;SDS011;43570;47.476;19.040;2023-06-14T10:41:35;7.32;;;4.53;;
57730;SDS011;43570;47.476;19.040;2023-06-14T10:44:10;7.15;;;4.43;;
57730;SDS011;43570;47.476;19.040;2023-06-14T10:46:38;8.60;;;4.25;;
57730;SDS011;43570;47.476;19.040;2023-06-14T10:49:05;8.68;;;4.30;;
57730;SDS011;43570;47.476;19.040;2023-06-14T10:51:37;6.68;;;3.75;;
57730;SDS011;43570;47.476;19.040;2023-06-14T10:54:11;6.12;;;3.80;;
57730;SDS011;43570;47.476;19.040;2023-06-14T10:56:38;6.50;;;3.95;;
57730;SDS011;43570;47.476;19.040;2023-06-14T10:59:11;6.32;;;4.12;;
57730;SDS011;43570;47.476;19.040;2023-06-14T11:01:38;7.78;;;4.70;;
57730;SDS011;43570;47.476;19.040;2023-06-14T11:04:10;6.20;;;3.97;;
57730;SDS011;43570;47.476;19.040;2023-06-14T11:06:45;5.93;;;4.22;;
57730;SDS011;43570;47.476;19.040;2023-06-14T11:12:14;7.68;;;3.83;;
57730;SDS011;43570;47.476;19.040;2023-06-14T11:14:40;10.30;;;3.70;;
57730;SDS011;43570;47.476;19.040;2023-06-14T11:17:06;7.20;;;3.92;;
57730;SDS011;43570;47.476;19.040;2023-06-14T11:19:31;6.25;;;3.90;;
57730;SDS011;43570;47.476;19.040;2023-06-14T11:21:57;7.12;;;3.92;;
57730;SDS011;43570;47.476;19.040;2023-06-14T11:24:22;6.15;;;4.00;;
57730;SDS011;43570;47.476;19.040;2023-06-14T11:26:47;5.80;;;3.90;;
57730;SDS011;43570;47.476;19.040;2023-06-14T11:29:14;4.87;;;3.60;;
57730;SDS011;43570;47.476;19.040;2023-06-14T11:31:43;8.90;;;4.40;;
57730;SDS011;43570;47.476;19.040;2023-06-14T11:34:09;5.97;;;4.05;;
57730;SDS011;43570;47.476;19.040;2023-06-14T11:36:35;7.25;;;4.30;;
57730;SDS011;43570;47.476;19.040;2023-06-14T11:39:01;7.25;;;4.12;;
57730;SDS011;43570;47.476;19.040;2023-06-14T11:41:35;6.80;;;4.05;;
57730;SDS011;43570;47.476;19.040;2023-06-14T11:44:02;7.72;;;4.47;;
57730;SDS011;43570;47.476;19.040;2023-06-14T11:46:28;7.62;;;4.20;;
57730;SDS011;43570;47.476;19.040;2023-06-14T11:48:54;6.68;;;3.90;;
57730;SDS011;43570;47.476;19.040;2023-06-14T11:51:19;5.43;;;3.92;;
57730;SDS011;43570;47.476;19.040;2023-06-14T11:53:45;10.25;;;4.85;;
57730;SDS011;43570;47.476;19.040;2023-06-14T11:56:11;11.23;;;4.12;;
57730;SDS011;43570;47.476;19.040;2023-06-14T11:58:36;8.07;;;3.90;;
57730;SDS011;43570;47.476;19.040;2023-06-14T12:01:05;7.40;;;4.37;;
57730;SDS011;43570;47.476;19.040;2023-06-14T12:03:30;9.98;;;4.68;;
57730;SDS011;43570;47.476;19.040;2023-06-14T12:06:05;9.77;;;3.97;;
57730;SDS011;43570;47.476;19.040;2023-06-14T12:08:35;10.45;;;4.35;;
57730;SDS011;43570;47.476;19.040;2023-06-14T12:11:05;7.28;;;3.85;;
57730;SDS011;43570;47.476;19.040;2023-06-14T12:13:40;9.73;;;5.65;;
57730;SDS011;43570;47.476;19.040;2023-06-14T12:16:09;6.93;;;4.10;;
57730;SDS011;43570;47.476;19.040;2023-06-14T12:18:36;7.97;;;5.62;;
57730;SDS011;43570;47.476;19.040;2023-06-14T12:21:09;6.37;;;4.18;;
57730;SDS011;43570;47.476;19.040;2023-06-14T12:23:45;7.28;;;4.57;;
57730;SDS011;43570;47.476;19.040;2023-06-14T12:26:15;7.95;;;4.80;;
57730;SDS011;43570;47.476;19.040;2023-06-14T12:28:41;7.43;;;4.53;;
57730;SDS011;43570;47.476;19.040;2023-06-14T12:31:14;6.82;;;4.20;;
57730;SDS011;43570;47.476;19.040;2023-06-14T12:33:40;8.88;;;4.53;;
57730;SDS011;43570;47.476;19.040;2023-06-14T12:36:06;7.90;;;4.55;;
57730;SDS011;43570;47.476;19.040;2023-06-14T12:38:32;6.57;;;4.37;;
57730;SDS011;43570;47.476;19.040;2023-06-14T12:40:58;9.48;;;4.75;;
57730;SDS011;43570;47.476;19.040;2023-06-14T12:43:23;7.68;;;4.10;;
57730;SDS011;43570;47.476;19.040;2023-06-14T12:45:49;6.75;;;3.90;;
57730;SDS011;43570;47.476;19.040;2023-06-14T12:48:14;7.95;;;4.40;;
57730;SDS011;43570;47.476;19.040;2023-06-14T12:50:40;8.73;;;4.90;;
57730;SDS011;43570;47.476;19.040;2023-06-14T12:53:06;10.68;;;4.28;;
57730;SDS011;43570;47.476;19.040;2023-06-14T12:55:32;8.63;;;4.35;;
57730;SDS011;43570;47.476;19.040;2023-06-14T12:57:57;10.02;;;4.82;;
57730;SDS011;43570;47.476;19.040;2023-06-14T13:00:23;6.07;;;4.40;;
57730;SDS011;43570;47.476;19.040;2023-06-14T13:02:50;7.15;;;4.40;;
57730;SDS011;43570;47.476;19.040;2023-06-14T13:05:16;7.47;;;3.95;;
57730;SDS011;43570;47.476;19.040;2023-06-14T13:07:42;8.30;;;4.40;;
57730;SDS011;43570;47.476;19.040;2023-06-14T13:10:07;6.53;;;4.50;;
57730;SDS011;43570;47.476;19.040;2023-06-14T13:12:33;8.52;;;4.30;;
57730;SDS011;43570;47.476;19.040;2023-06-14T13:14:58;6.50;;;4.12;;
57730;SDS011;43570;47.476;19.040;2023-06-14T13:17:23;6.30;;;4.10;;
57730;SDS011;43570;47.476;19.040;2023-06-14T13:19:49;7.00;;;3.75;;
57730;SDS011;43570;47.476;19.040;2023-06-14T13:22:14;7.72;;;4.37;;
57730;SDS011;43570;47.476;19.040;2023-06-14T13:24:40;7.15;;;4.10;;
57730;SDS011;43570;47.476;19.040;2023-06-14T13:27:05;9.68;;;4.05;;
57730;SDS011;43570;47.476;19.040;2023-06-14T13:29:32;9.95;;;4.30;;
57730;SDS011;43570;47.476;19.040;2023-06-14T13:31:58;10.15;;;5.18;;
57730;SDS011;43570;47.476;19.040;2023-06-14T13:34:24;7.15;;;3.78;;
57730;SDS011;43570;47.476;19.040;2023-06-14T13:36:49;6.80;;;3.65;;
57730;SDS011;43570;47.476;19.040;2023-06-14T13:39:14;8.68;;;3.70;;
57730;SDS011;43570;47.476;19.040;2023-06-14T13:41:40;5.43;;;3.75;;
57730;SDS011;43570;47.476;19.040;2023-06-14T13:44:05;6.82;;;3.83;;
57730;SDS011;43570;47.476;19.040;2023-06-14T13:46:31;8.23;;;4.68;;
57730;SDS011;43570;47.476;19.040;2023-06-14T13:48:56;6.55;;;4.25;;
57730;SDS011;43570;47.476;19.040;2023-06-14T13:51:23;8.75;;;3.97;;
57730;SDS011;43570;47.476;19.040;2023-06-14T13:53:49;6.78;;;3.83;;
57730;SDS011;43570;47.476;19.040;2023-06-14T13:56:15;6.65;;;3.92;;
57730;SDS011;43570;47.476;19.040;2023-06-14T13:58:41;7.78;;;3.95;;
57730;SDS011;43570;47.476;19.040;2023-06-14T14:01:07;6.72;;;3.65;;
57730;SDS011;43570;47.476;19.040;2023-06-14T14:03:33;7.78;;;3.75;;
57730;SDS011;43570;47.476;19.040;2023-06-14T14:06:00;7.12;;;3.95;;
57730;SDS011;43570;47.476;19.040;2023-06-14T14:08:26;6.18;;;4.00;;
57730;SDS011;43570;47.476;19.040;2023-06-14T14:10:51;5.18;;;3.80;;
57730;SDS011;43570;47.476;19.040;2023-06-14T14:13:17;7.68;;;4.12;;
57730;SDS011;43570;47.476;19.040;2023-06-14T14:15:42;6.43;;;4.50;;
57730;SDS011;43570;47.476;19.040;2023-06-14T14:18:08;7.05;;;4.10;;
57730;SDS011;43570;47.476;19.040;2023-06-14T14:20:34;6.20;;;4.22;;
57730;SDS011;43570;47.476;19.040;2023-06-14T14:23:00;4.93;;;4.00;;
57730;SDS011;43570;47.476;19.040;2023-06-14T14:25:25;7.32;;;4.00;;
57730;SDS011;43570;47.476;19.040;2023-06-14T14:27:51;6.32;;;4.30;;
57730;SDS011;43570;47.476;19.040;2023-06-14T14:30:16;5.30;;;3.53;;
57730;SDS011;43570;47.476;19.040;2023-06-14T14:32:43;6.78;;;4.07;;
57730;SDS011;43570;47.476;19.040;2023-06-14T14:35:09;6.18;;;3.95;;
57730;SDS011;43570;47.476;19.040;2023-06-14T14:37:36;7.25;;;3.70;;